RJAW/IWO METAR and TAF weather

Enter ICAO airport designator
Station Type Date Time Source
RJAW METAR 2021/10/22 18:00 UTC NOAA

RJAW 221800Z 30009KT 9999 VCSH FEW010 BKN015 26/23 Q1012 RMK 1CU010 6CU015 A2990


Station Type Date Time Source
RJAW Decoded METAR 2021/10/22 18:00 UTC NOAA

Iwojima, Japan (RJAW) 24-47N 141-19E 116M
Oct 22, 2021 - 02:00 PM EDT / 2021.10.22 1800 UTC
Wind: from the WNW (300 degrees) at 10 MPH (9 KT):0
Visibility: greater than 7 mile(s):0
Sky conditions: mostly cloudy
Weather: showers in the vicinity
Temperature: 78 F (26 C)
Dew Point: 73 F (23 C)
Relative Humidity: 83%
Pressure (altimeter): 29.88 in. Hg (1012 hPa)
ob: RJAW 221800Z 30009KT 9999 VCSH FEW010 BKN015 26/23 Q1012 RMK 1CU010 6CU015 A2990
cycle: 18

Station Type Date Time Source
RJAW TAF UTC NOAA

Error!

Example: see airport list